Aeroporto :







RITROVATECI SU...

 
LOGIN :

Iscrizione | Disclaimer

   EN    FR    IT 

 









Sommario :    VFR   VFR Marginale   IFR   IFR Intensivo   IFR Molto Intensivo
Visibilità : 
Base nubi : 
>= 8 km
>= 3000ft
5 / 8 km
1000 / 3000 ft
1500m / 5 km
500 / 1000 ft
800 / 1500m
200 / 500 ft
< 800m
< 200 ft
Simboli :   Temporali  Nebbia  Neve Forte  Precipitazioni Forti  Vento > 20 kt






- Altitudine del aeroporto : 36 ft
- Codice IATA : PTP


TFFR - Le Raizet

ULTIMO METAR :
  • 091730Z AUTO 15013KT 9999 BKN033 30/22 Q1013 NOSIG

METARs OBSOLETI :
  • 091700Z AUTO 16012KT 9999 BKN037 30/22 Q1014 NOSIG
  • 091630Z AUTO 14012KT 110V190 9999 BKN033 BKN040 30/21 Q1014 NOSIG
  • 091600Z AUTO 14012KT 110V170 9999 BKN036 29/21 Q1014 NOSIG
  • 091530Z AUTO 13014KT 9999 SCT037 30/20 Q1015 NOSIG
  • 091500Z AUTO 14013KT 110V180 9999 FEW004 BKN033 29/20 Q1015 NOSIG

TAF TAF TFFR
Valido dal 09 a 18 ore il 10 a 18 ore UTC


091700Z 0918/1018 14010KT 9999 SCT035
BECMG 1000/1002 VRB02KT
BECMG 1009/1011 14010KT



MetMap, La meteo Aeronautica in un colpo d'occhio ! - Copyright ORBIFLY Dicembre 2007 - Disclaimer

ORBIFLY MET'MAP TEAM :

Programmazione e sviluppo : Alexandra Zaïnal
Concezione : Baudouin d'Aumeries
Aiuto per la programmazione : Marc-Olivier Méhu
Supporto tecnico e logistico : Manuel Goepfert
Aiuto per la traduzione : Arnaldo La Scala

Contatto : metmap@orbifly.com




FONTI E CREDITI :

   NOAA